Airfield :
LOGIN :

Register | Disclaimer

   EN    FR    IT 

 










Legend :    VFR   Marginal VFR   IFR   Intensive IFR   Very Intensive IFR
Visi :
Ceiling :
>= 8 km
>= 3000ft
5 to 8 km
1000 to 3000 ft
1500m to 5 km
500 to 1000 ft
800 to 1500m
200 to 500 ft
< 800m
< 200 ft
Symbols :   Thunderstorms  Fog  Heavy snow  Heavy precipitations  Wind > 20 kt
SIGMETs :     Misc.  Thunderstorms  Icing  Turbulence  Mountain Waves  Volcanic Ashes






- Airport Elevation : 512 ft
- IATA code : URO


LFOP - Rouen Vallée de Seine

CURRENT METAR :
  • 170000Z AUTO 25013KT CAVOK 08/05 Q1013

EXPIRED METARs :
  • 162330Z AUTO 25015KT 9999 FEW024 OVC180 08/05 Q1012
  • 162300Z AUTO 25015KT 9999 FEW024 OVC170 08/05 Q1012
  • 162230Z AUTO 24015KT 9999 SCT021 BKN160 OVC190 08/06 Q1011
  • 162200Z AUTO 23016KT 9999 FEW019 OVC180 07/06 Q1011 TEMPO 25015G25KT 3000 SHRA BKN008 BKN020TCU
  • 162130Z AUTO 22016KT 9999 BKN020 OVC028 07/06 Q1010 TEMPO 25015G25KT 3000 SHRA BKN008 BKN020TCU

TAF AMD TAF LFOP
Valid from the 16 at 18:00 until the 17 at 18:00 UTC


161826Z 1618/1718 26015KT 9999 OVC035
TEMPO 1618/1623 25015G25KT 3000 SHRA BKN008 BKN020TCU
BECMG 1700/1703 20010KT
BECMG 1709/1712 22015G25KT
TEMPO 1712/1718 22025G35KT 3000 SHRA BKN015CB
ATIS : +33 2 35 80 80 34
Met : +33 2 32 86 52 80



MET'MAP, your aeronautical weather chart ! - Copyright ORBIFLY December 2007 - Disclaimer

ORBIFLY MET'MAP TEAM :

Programming & Development : Alexandra Zaïnal
Concept & original design : Baudouin d'Aumeries
Assistance for programming : Marc-Olivier Méhu
Technical & hardware support : Manuel Goepfert

Contact : metmap@orbifly.com




SOURCES & CREDITS :

   NOAA